sensor_id;sensor_type;location;lat;lon;timestamp;P1;durP1;ratioP1;P2;durP2;ratioP2
14021;SDS011;7086;48.116;11.580;2023-02-22T00:31:35;3.92;;;3.58;;
14021;SDS011;7086;48.116;11.580;2023-02-22T00:34:36;5.22;;;4.15;;
14021;SDS011;7086;48.116;11.580;2023-02-22T00:37:59;4.00;;;3.70;;
14021;SDS011;7086;48.116;11.580;2023-02-22T00:41:36;3.75;;;3.45;;
14021;SDS011;7086;48.116;11.580;2023-02-22T00:51:33;4.10;;;3.47;;
14021;SDS011;7086;48.116;11.580;2023-02-22T00:54:15;4.60;;;3.47;;
14021;SDS011;7086;48.116;11.580;2023-02-22T00:56:49;3.50;;;3.20;;
14021;SDS011;7086;48.116;11.580;2023-02-22T00:59:37;3.40;;;3.10;;
14021;SDS011;7086;48.116;11.580;2023-02-22T01:02:21;7.35;;;3.58;;
14021;SDS011;7086;48.116;11.580;2023-02-22T01:05:06;3.47;;;3.03;;
14021;SDS011;7086;48.116;11.580;2023-02-22T01:14:25;5.10;;;2.90;;
14021;SDS011;7086;48.116;11.580;2023-02-22T01:17:11;3.05;;;2.85;;
14021;SDS011;7086;48.116;11.580;2023-02-22T01:19:40;2.75;;;2.45;;
14021;SDS011;7086;48.116;11.580;2023-02-22T01:22:12;3.63;;;3.33;;
14021;SDS011;7086;48.116;11.580;2023-02-22T01:24:54;3.00;;;2.72;;
14021;SDS011;7086;48.116;11.580;2023-02-22T01:28:13;3.70;;;2.90;;
14021;SDS011;7086;48.116;11.580;2023-02-22T01:30:46;2.65;;;2.50;;
14021;SDS011;7086;48.116;11.580;2023-02-22T01:33:23;4.70;;;3.08;;
14021;SDS011;7086;48.116;11.580;2023-02-22T01:35:51;4.30;;;3.10;;
14021;SDS011;7086;48.116;11.580;2023-02-22T01:38:19;3.25;;;2.95;;
14021;SDS011;7086;48.116;11.580;2023-02-22T01:40:47;3.17;;;2.90;;
14021;SDS011;7086;48.116;11.580;2023-02-22T01:43:20;2.65;;;2.55;;
14021;SDS011;7086;48.116;11.580;2023-02-22T01:45:54;2.80;;;2.60;;
14021;SDS011;7086;48.116;11.580;2023-02-22T01:48:34;2.50;;;2.40;;
14021;SDS011;7086;48.116;11.580;2023-02-22T01:51:23;2.92;;;2.70;;
14021;SDS011;7086;48.116;11.580;2023-02-22T01:53:56;3.10;;;2.88;;
14021;SDS011;7086;48.116;11.580;2023-02-22T01:56:28;3.05;;;2.80;;
14021;SDS011;7086;48.116;11.580;2023-02-22T01:59:07;3.00;;;2.65;;
14021;SDS011;7086;48.116;11.580;2023-02-22T02:01:40;2.60;;;2.45;;
14021;SDS011;7086;48.116;11.580;2023-02-22T02:04:12;3.80;;;2.70;;
14021;SDS011;7086;48.116;11.580;2023-02-22T02:06:49;3.00;;;2.70;;
14021;SDS011;7086;48.116;11.580;2023-02-22T02:09:29;2.70;;;2.50;;
14021;SDS011;7086;48.116;11.580;2023-02-22T02:12:06;7.55;;;2.55;;
14021;SDS011;7086;48.116;11.580;2023-02-22T02:14:42;3.47;;;2.35;;
14021;SDS011;7086;48.116;11.580;2023-02-22T02:17:15;4.05;;;2.92;;
14021;SDS011;7086;48.116;11.580;2023-02-22T02:19:53;2.30;;;2.20;;
14021;SDS011;7086;48.116;11.580;2023-02-22T02:22:40;2.50;;;2.40;;
14021;SDS011;7086;48.116;11.580;2023-02-22T02:36:57;2.53;;;2.42;;
14021;SDS011;7086;48.116;11.580;2023-02-22T02:39:50;3.20;;;3.10;;
14021;SDS011;7086;48.116;11.580;2023-02-22T02:42:49;2.28;;;2.17;;
14021;SDS011;7086;48.116;11.580;2023-02-22T02:45:41;3.50;;;2.33;;
14021;SDS011;7086;48.116;11.580;2023-02-22T03:37:08;1.80;;;1.70;;
14021;SDS011;7086;48.116;11.580;2023-02-22T03:40:06;1.60;;;1.60;;
14021;SDS011;7086;48.116;11.580;2023-02-22T03:43:21;1.75;;;1.67;;
14021;SDS011;7086;48.116;11.580;2023-02-22T03:50:03;2.55;;;2.20;;
14021;SDS011;7086;48.116;11.580;2023-02-22T03:52:44;2.28;;;1.83;;
14021;SDS011;7086;48.116;11.580;2023-02-22T03:55:19;2.85;;;2.40;;
14021;SDS011;7086;48.116;11.580;2023-02-22T03:58:30;2.65;;;2.50;;
14021;SDS011;7086;48.116;11.580;2023-02-22T04:01:02;2.67;;;2.47;;
14021;SDS011;7086;48.116;11.580;2023-02-22T04:03:34;3.20;;;2.25;;
14021;SDS011;7086;48.116;11.580;2023-02-22T04:06:19;2.33;;;2.13;;
14021;SDS011;7086;48.116;11.580;2023-02-22T04:12:40;3.42;;;2.30;;
14021;SDS011;7086;48.116;11.580;2023-02-22T04:15:47;2.40;;;2.30;;
14021;SDS011;7086;48.116;11.580;2023-02-22T04:38:05;6.72;;;2.20;;
14021;SDS011;7086;48.116;11.580;2023-02-22T04:41:58;3.83;;;2.38;;
14021;SDS011;7086;48.116;11.580;2023-02-22T04:45:29;3.58;;;2.70;;
14021;SDS011;7086;48.116;11.580;2023-02-22T04:51:06;2.80;;;2.60;;
14021;SDS011;7086;48.116;11.580;2023-02-22T04:54:31;2.75;;;2.65;;
14021;SDS011;7086;48.116;11.580;2023-02-22T04:57:08;4.40;;;2.80;;
14021;SDS011;7086;48.116;11.580;2023-02-22T04:59:58;3.28;;;3.03;;
14021;SDS011;7086;48.116;11.580;2023-02-22T05:04:24;3.30;;;2.70;;
14021;SDS011;7086;48.116;11.580;2023-02-22T05:11:12;4.50;;;3.00;;
14021;SDS011;7086;48.116;11.580;2023-02-22T05:14:05;6.95;;;3.00;;
14021;SDS011;7086;48.116;11.580;2023-02-22T05:16:48;3.45;;;2.95;;
14021;SDS011;7086;48.116;11.580;2023-02-22T05:20:05;5.18;;;3.65;;
14021;SDS011;7086;48.116;11.580;2023-02-22T05:22:44;3.08;;;2.78;;
14021;SDS011;7086;48.116;11.580;2023-02-22T05:58:40;3.00;;;2.70;;
14021;SDS011;7086;48.116;11.580;2023-02-22T06:01:32;2.78;;;2.55;;
14021;SDS011;7086;48.116;11.580;2023-02-22T06:04:51;3.20;;;2.97;;
14021;SDS011;7086;48.116;11.580;2023-02-22T06:07:47;3.08;;;2.80;;
14021;SDS011;7086;48.116;11.580;2023-02-22T06:10:27;4.88;;;2.85;;
14021;SDS011;7086;48.116;11.580;2023-02-22T06:13:28;3.17;;;2.85;;
14021;SDS011;7086;48.116;11.580;2023-02-22T06:16:27;4.05;;;2.85;;
14021;SDS011;7086;48.116;11.580;2023-02-22T06:22:21;5.20;;;2.67;;
14021;SDS011;7086;48.116;11.580;2023-02-22T06:24:55;4.15;;;3.42;;
14021;SDS011;7086;48.116;11.580;2023-02-22T06:28:03;10.63;;;2.92;;
14021;SDS011;7086;48.116;11.580;2023-02-22T06:33:44;4.47;;;3.50;;
14021;SDS011;7086;48.116;11.580;2023-02-22T14:34:43;0.93;;;0.70;;
14021;SDS011;7086;48.116;11.580;2023-02-22T14:37:23;0.60;;;0.60;;
14021;SDS011;7086;48.116;11.580;2023-02-22T14:49:44;0.82;;;0.57;;
14021;SDS011;7086;48.116;11.580;2023-02-22T14:52:31;0.70;;;0.70;;
14021;SDS011;7086;48.116;11.580;2023-02-22T15:36:28;6.88;;;3.40;;
14021;SDS011;7086;48.116;11.580;2023-02-22T15:40:37;4.53;;;3.65;;
14021;SDS011;7086;48.116;11.580;2023-02-22T16:04:29;7.85;;;1.70;;
14021;SDS011;7086;48.116;11.580;2023-02-22T16:07:12;3.65;;;1.92;;
14021;SDS011;7086;48.116;11.580;2023-02-22T16:09:56;7.55;;;2.50;;
14021;SDS011;7086;48.116;11.580;2023-02-22T16:13:09;13.18;;;10.40;;
14021;SDS011;7086;48.116;11.580;2023-02-22T16:16:19;13.13;;;11.30;;
14021;SDS011;7086;48.116;11.580;2023-02-22T16:26:17;5.57;;;2.15;;
14021;SDS011;7086;48.116;11.580;2023-02-22T21:17:28;7.13;;;6.35;;
14021;SDS011;7086;48.116;11.580;2023-02-22T21:19:57;10.43;;;5.95;;
14021;SDS011;7086;48.116;11.580;2023-02-22T22:49:03;8.60;;;6.97;;
14021;SDS011;7086;48.116;11.580;2023-02-22T22:52:09;9.13;;;7.57;;
14021;SDS011;7086;48.116;11.580;2023-02-22T22:54:38;8.55;;;7.68;;
14021;SDS011;7086;48.116;11.580;2023-02-22T22:57:06;11.50;;;7.35;;
14021;SDS011;7086;48.116;11.580;2023-02-22T22:59:35;11.82;;;7.35;;
14021;SDS011;7086;48.116;11.580;2023-02-22T23:02:03;7.63;;;6.72;;
14021;SDS011;7086;48.116;11.580;2023-02-22T23:04:34;10.55;;;7.65;;
14021;SDS011;7086;48.116;11.580;2023-02-22T23:07:03;9.15;;;7.50;;
14021;SDS011;7086;48.116;11.580;2023-02-22T23:09:31;8.00;;;6.85;;
14021;SDS011;7086;48.116;11.580;2023-02-22T23:12:02;8.85;;;7.22;;
14021;SDS011;7086;48.116;11.580;2023-02-22T23:14:36;9.70;;;6.68;;
14021;SDS011;7086;48.116;11.580;2023-02-22T23:17:08;9.38;;;7.72;;
14021;SDS011;7086;48.116;11.580;2023-02-22T23:19:40;9.50;;;7.30;;
14021;SDS011;7086;48.116;11.580;2023-02-22T23:22:10;10.60;;;7.63;;
14021;SDS011;7086;48.116;11.580;2023-02-22T23:24:40;11.07;;;7.53;;
14021;SDS011;7086;48.116;11.580;2023-02-22T23:27:09;9.02;;;7.55;;
14021;SDS011;7086;48.116;11.580;2023-02-22T23:29:40;8.50;;;7.60;;
14021;SDS011;7086;48.116;11.580;2023-02-22T23:32:10;8.38;;;7.20;;
14021;SDS011;7086;48.116;11.580;2023-02-22T23:34:38;11.48;;;7.57;;
14021;SDS011;7086;48.116;11.580;2023-02-22T23:37:08;9.15;;;7.70;;
14021;SDS011;7086;48.116;11.580;2023-02-22T23:39:38;10.27;;;7.55;;
14021;SDS011;7086;48.116;11.580;2023-02-22T23:42:07;10.90;;;7.53;;
14021;SDS011;7086;48.116;11.580;2023-02-22T23:44:35;11.82;;;7.80;;
14021;SDS011;7086;48.116;11.580;2023-02-22T23:47:05;8.63;;;7.43;;
14021;SDS011;7086;48.116;11.580;2023-02-22T23:49:33;8.20;;;7.03;;
14021;SDS011;7086;48.116;11.580;2023-02-22T23:52:02;12.32;;;9.13;;
14021;SDS011;7086;48.116;11.580;2023-02-22T23:54:31;10.60;;;7.38;;
14021;SDS011;7086;48.116;11.580;2023-02-22T23:57:04;8.68;;;7.47;;
14021;SDS011;7086;48.116;11.580;2023-02-22T23:59:32;10.40;;;7.50;;
